Time;durP1;ratioP1;P1;durP2;ratioP2;P2;SDS_P1;SDS_P2;PMS_P1;PMS_P2;Temp;Humidity;BMP_temperature;BMP_pressure;BME280_temperature;BME280_humidity;BME280_pressure;Samples;Min_cycle;Max_cycle;Signal;HPM_P1;HPM_P2
2021/10/21 00:00:40;;;;;;;23.60;15.60;;;;;;;3.48;83.23;97713.90;116169;1182;60383;-65
2021/10/21 00:03:10;;;;;;;22.80;16.70;;;;;;;3.43;83.43;97721.15;116157;1182;72859;-62
2021/10/21 00:05:40;;;;;;;20.50;12.90;;;;;;;3.41;84.28;97720.05;116149;1183;67567;-64
2021/10/21 00:08:10;;;;;;;15.10;10.90;;;;;;;3.40;83.22;97718.21;115994;1184;69710;-63
2021/10/21 00:10:43;;;;;;;15.90;10.90;;;;;;;3.38;81.75;97717.05;116255;1184;60344;-64
2021/10/21 00:13:13;;;;;;;17.50;12.70;;;;;;;3.36;81.13;97710.41;116084;1184;60770;-64
2021/10/21 00:15:43;;;;;;;24.20;14.80;;;;;;;3.34;81.42;97710.17;116177;1183;71051;-63
2021/10/21 00:18:13;;;;;;;11.60;9.70;;;;;;;3.32;81.22;97707.81;116100;1184;68197;-63
2021/10/21 00:20:43;;;;;;;12.70;10.00;;;;;;;3.29;80.26;97704.30;116126;1183;69119;-64
2021/10/21 00:23:13;;;;;;;15.80;12.10;;;;;;;3.27;79.68;97705.41;116168;1183;60374;-64
2021/10/21 00:25:43;;;;;;;17.90;12.80;;;;;;;3.24;79.65;97701.77;116061;1184;60733;-63
2021/10/21 00:28:14;;;;;;;11.40;8.40;;;;;;;3.20;79.81;97704.50;116113;1183;71309;-66
2021/10/21 00:30:44;;;;;;;8.80;6.70;;;;;;;3.18;79.26;97703.56;116244;1182;68373;-62
2021/10/21 00:33:14;;;;;;;12.40;8.50;;;;;;;3.14;79.24;97699.73;116155;1184;69236;-66
2021/10/21 00:35:44;;;;;;;11.30;8.90;;;;;;;3.12;79.56;97702.59;116115;1183;60422;-65
2021/10/21 00:38:15;;;;;;;13.80;8.30;;;;;;;3.10;78.96;97696.98;116246;1181;60371;-64
2021/10/21 00:40:45;;;;;;;21.80;14.70;;;;;;;3.09;79.23;97694.60;116063;1182;72438;-65
2021/10/21 00:43:15;;;;;;;8.90;6.30;;;;;;;3.08;79.23;97694.45;116182;1183;67617;-63
2021/10/21 00:45:46;;;;;;;12.60;9.60;;;;;;;3.05;78.90;97695.58;116049;1183;68486;-63
2021/10/21 00:48:16;;;;;;;15.50;9.40;;;;;;;3.03;79.01;97693.25;116143;1182;60377;-64
2021/10/21 00:50:46;;;;;;;16.20;12.40;;;;;;;3.00;78.90;97690.11;116217;1182;60376;-63
2021/10/21 00:53:17;;;;;;;12.60;10.00;;;;;;;2.96;79.61;97683.72;116068;1184;70498;-64
2021/10/21 00:55:48;;;;;;;17.70;11.70;;;;;;;2.93;79.23;97678.66;116146;1176;68276;-64
2021/10/21 00:58:19;;;;;;;;;;;;;;;2.91;79.93;97672.89;116131;1183;68458;-63
2021/10/21 01:00:49;;;;;;;18.60;11.70;;;;;;;2.90;78.35;97670.16;116176;1184;60348;-64
2021/10/21 01:03:21;;;;;;;12.80;8.30;;;;;;;2.89;80.49;97674.85;116153;1183;60308;-65
2021/10/21 01:05:53;;;;;;;14.70;10.90;;;;;;;2.89;78.60;97670.56;116158;1182;71240;-64
2021/10/21 01:08:24;;;;;;;19.60;12.40;;;;;;;2.88;81.30;97668.72;116194;1182;68301;-64
2021/10/21 01:10:54;;;;;;;23.60;15.50;;;;;;;2.87;82.92;97669.10;116166;1184;69094;-65
2021/10/21 01:13:24;;;;;;;19.40;13.80;;;;;;;2.85;83.83;97666.21;116185;1184;60802;-64
2021/10/21 01:16:22;;;;;;;23.50;14.40;;;;;;;2.84;83.56;97660.61;116158;1181;60351;-64
2021/10/21 01:18:53;;;;;;;12.90;7.90;;;;;;;2.82;82.46;97657.39;116145;1183;72562;-64
2021/10/21 01:21:24;;;;;;;19.00;12.50;;;;;;;2.87;80.23;97655.52;116119;1182;68219;-64
2021/10/21 01:23:57;;;;;;;14.30;10.60;;;;;;;2.88;82.84;97652.54;116138;1184;69277;-67
2021/10/21 01:26:27;;;;;;;21.30;13.90;;;;;;;2.86;82.47;97651.73;116147;1183;60364;-65
2021/10/21 01:28:58;;;;;;;15.50;10.50;;;;;;;2.82;84.01;97645.51;116250;1182;60301;-65
2021/10/21 01:31:30;;;;;;;19.80;13.80;;;;;;;2.80;83.95;97644.04;116046;1184;71908;-65
2021/10/21 01:34:01;;;;;;;25.10;16.70;;;;;;;2.75;85.32;97645.09;116141;1183;68430;-65
2021/10/21 01:36:31;;;;;;;21.60;13.10;;;;;;;2.73;85.39;97644.98;116133;1184;68286;-66
2021/10/21 01:39:07;;;;;;;20.30;14.40;;;;;;;2.72;84.58;97649.00;116128;1182;60317;-66
2021/10/21 01:41:37;;;;;;;23.00;14.50;;;;;;;2.71;84.02;97648.70;116095;1184;60337;-65
2021/10/21 01:44:08;;;;;;;16.20;9.30;;;;;;;2.69;83.48;97643.95;116098;1184;71423;-65
2021/10/21 01:46:40;;;;;;;9.90;6.30;;;;;;;2.68;82.18;97642.42;116179;1183;68464;-65
2021/10/21 01:49:10;;;;;;;17.90;11.30;;;;;;;2.68;81.61;97636.58;116008;1184;69058;-65
2021/10/21 01:51:41;;;;;;;16.10;11.50;;;;;;;2.61;82.22;97635.63;116129;1183;60358;-66
2021/10/21 01:54:12;;;;;;;16.30;12.20;;;;;;;2.55;81.70;97630.00;116209;1181;60389;-63
2021/10/21 01:56:44;;;;;;;15.70;11.40;;;;;;;2.49;81.50;97623.84;116192;1182;72177;-63
2021/10/21 01:59:14;;;;;;;9.60;6.60;;;;;;;2.46;81.05;97621.38;115990;1184;68465;-63
2021/10/21 02:01:44;;;;;;;18.00;12.10;;;;;;;2.43;80.87;97620.66;116224;1182;68490;-66
2021/10/21 02:04:15;;;;;;;15.80;11.20;;;;;;;2.38;81.51;97619.78;116171;1183;60318;-64
2021/10/21 02:06:45;;;;;;;15.80;12.00;;;;;;;2.35;81.77;97617.48;116140;1182;60303;-62
2021/10/21 02:09:17;;;;;;;22.60;14.80;;;;;;;2.32;83.05;97622.41;116119;1184;71458;-62
2021/10/21 02:11:48;;;;;;;19.90;13.50;;;;;;;2.27;84.46;97621.75;116094;1184;67480;-64
2021/10/21 02:14:19;;;;;;;22.40;14.30;;;;;;;2.26;85.01;97622.31;116120;1183;68392;-64
2021/10/21 02:16:49;;;;;;;;;;;;;;;2.25;85.76;97621.63;116199;1182;60340;-66
2021/10/21 02:19:18;;;;;;;8.60;6.10;;;;;;;2.25;85.49;97614.58;116326;1182;60304;-63
2021/10/21 02:21:49;;;;;;;10.30;6.90;;;;;;;2.27;82.03;97608.98;116333;1182;71400;-65
2021/10/21 02:24:20;;;;;;;12.20;8.30;;;;;;;2.32;81.54;97608.67;116055;1184;67591;-65
2021/10/21 02:26:51;;;;;;;12.50;8.60;;;;;;;2.37;81.65;97609.70;115944;1184;69110;-63
2021/10/21 02:29:21;;;;;;;11.50;8.50;;;;;;;2.37;81.51;97607.44;116070;1184;60362;-64
2021/10/21 02:31:51;;;;;;;13.60;8.00;;;;;;;2.36;81.51;97600.27;116167;1184;60409;-63
2021/10/21 02:34:22;;;;;;;15.10;9.80;;;;;;;2.36;81.19;97600.27;116186;1183;72641;-65
2021/10/21 02:36:52;;;;;;;18.10;13.00;;;;;;;2.34;82.63;97598.81;116016;1184;68000;-62
2021/10/21 02:39:23;;;;;;;15.20;9.50;;;;;;;2.29;82.37;97599.47;116084;1184;67456;-63
2021/10/21 02:41:53;;;;;;;14.50;11.00;;;;;;;2.25;82.97;97595.14;116297;1182;60357;-64
2021/10/21 02:44:24;;;;;;;15.40;11.30;;;;;;;2.23;83.15;97595.77;116074;1183;60386;-63
2021/10/21 02:46:54;;;;;;;12.90;7.70;;;;;;;2.20;82.71;97598.28;116047;1184;71866;-63
2021/10/21 02:49:25;;;;;;;13.70;10.10;;;;;;;2.18;82.27;97598.36;116148;1185;67408;-64
2021/10/21 02:51:57;;;;;;;13.30;9.90;;;;;;;2.16;83.96;97596.71;116127;1184;68446;-63
2021/10/21 02:54:27;;;;;;;12.30;9.50;;;;;;;2.14;82.78;97597.99;116107;1184;60431;-64
2021/10/21 02:56:58;;;;;;;18.80;13.20;;;;;;;2.12;82.41;97597.86;116138;1184;60327;-64
2021/10/21 02:59:28;;;;;;;11.60;8.80;;;;;;;2.10;83.08;97599.15;116105;1182;72865;-64
2021/10/21 03:01:58;;;;;;;16.00;11.40;;;;;;;2.08;83.25;97598.04;116064;1184;67298;-63
2021/10/21 03:04:28;;;;;;;11.80;8.40;;;;;;;2.05;83.19;97595.38;116132;1182;69254;-63
2021/10/21 03:06:58;;;;;;;13.90;11.10;;;;;;;2.02;81.98;97592.73;116103;1184;60366;-63
2021/10/21 03:09:27;;;;;;;21.10;12.70;;;;;;;1.99;83.25;97592.49;116171;1183;60814;-64
2021/10/21 03:11:57;;;;;;;11.50;7.50;;;;;;;1.96;82.60;97587.25;116121;1183;72895;-64
2021/10/21 03:14:27;;;;;;;10.10;8.00;;;;;;;1.95;81.44;97587.29;116148;1182;68310;-64
2021/10/21 03:16:56;;;;;;;12.20;8.50;;;;;;;1.94;81.43;97583.90;116130;1184;69218;-64
2021/10/21 03:19:26;;;;;;;;;;;;;;;1.92;81.66;97578.84;116128;1184;60364;-64
2021/10/21 03:21:56;;;;;;;14.70;9.00;;;;;;;1.89;83.30;97572.92;116160;1174;60347;-65
2021/10/21 03:24:26;;;;;;;9.10;7.00;;;;;;;1.86;82.42;97566.48;116186;1184;72180;-63
2021/10/21 03:26:56;;;;;;;11.20;7.60;;;;;;;1.86;80.73;97560.49;116144;1183;67627;-64
2021/10/21 03:29:26;;;;;;;18.50;12.50;;;;;;;1.88;80.12;97558.16;116084;1184;69278;-64
2021/10/21 03:31:56;;;;;;;13.20;9.80;;;;;;;1.88;82.26;97559.53;116096;1183;60370;-64
2021/10/21 03:34:26;;;;;;;13.30;9.50;;;;;;;1.87;83.98;97558.36;116124;1182;60377;-64
2021/10/21 03:36:56;;;;;;;14.70;9.80;;;;;;;1.86;84.07;97550.52;116123;1174;71963;-64
2021/10/21 03:39:27;;;;;;;13.60;10.10;;;;;;;1.85;83.46;97551.06;116159;1183;67685;-66
2021/10/21 03:41:56;;;;;;;13.00;9.90;;;;;;;1.83;83.22;97550.97;116114;1183;68440;-64
2021/10/21 03:44:26;;;;;;;13.70;9.50;;;;;;;1.82;84.88;97547.91;116150;1184;60360;-64
2021/10/21 03:46:55;;;;;;;17.90;12.70;;;;;;;1.81;85.25;97548.45;116089;1182;60315;-65
2021/10/21 03:49:25;;;;;;;23.10;14.70;;;;;;;1.80;86.36;97546.41;116163;1182;73110;-65
2021/10/21 03:51:55;;;;;;;16.80;11.70;;;;;;;1.78;87.89;97541.65;116106;1184;68224;-64
2021/10/21 03:54:25;;;;;;;17.20;11.10;;;;;;;1.78;87.36;97534.79;116143;1184;68487;-62
2021/10/21 03:56:55;;;;;;;18.80;12.50;;;;;;;1.78;87.07;97535.14;116161;1183;60888;-66
2021/10/21 03:59:25;;;;;;;17.10;11.80;;;;;;;1.77;87.56;97528.13;116093;1184;60395;-65
2021/10/21 04:01:57;;;;;;;8.60;6.00;;;;;;;1.79;86.34;97527.89;116166;1184;72184;-64
2021/10/21 04:04:27;;;;;;;13.20;8.30;;;;;;;1.85;83.60;97525.98;116171;1184;67320;-65
2021/10/21 04:06:56;;;;;;;16.40;10.70;;;;;;;1.92;84.04;97522.27;116112;1184;69361;-62
2021/10/21 04:09:26;;;;;;;14.30;9.00;;;;;;;1.98;84.61;97523.23;116221;1182;60316;-64
2021/10/21 04:11:55;;;;;;;11.90;8.20;;;;;;;2.00;84.20;97522.84;116121;1183;60332;-64
2021/10/21 04:14:26;;;;;;;12.30;8.50;;;;;;;2.00;83.93;97519.73;116024;1184;72557;-65
2021/10/21 04:16:58;;;;;;;11.60;7.40;;;;;;;1.99;83.81;97512.91;116085;1183;69030;-64
2021/10/21 04:19:28;;;;;;;15.70;11.20;;;;;;;1.98;83.78;97512.21;116112;1183;68597;-63
2021/10/21 04:21:59;;;;;;;21.90;12.90;;;;;;;1.96;85.08;97512.15;116155;1182;60325;-63
2021/10/21 04:24:28;;;;;;;20.30;13.10;;;;;;;1.93;86.71;97504.02;116123;1183;60367;-65
2021/10/21 04:26:57;;;;;;;15.70;10.50;;;;;;;1.89;86.83;97500.05;116177;1184;71414;-63
2021/10/21 04:29:27;;;;;;;16.90;11.00;;;;;;;1.86;86.67;97494.82;116081;1184;68516;-66
2021/10/21 04:31:56;;;;;;;12.70;8.10;;;;;;;1.84;85.95;97494.56;116252;1185;69188;-63
2021/10/21 04:34:25;;;;;;;11.50;8.70;;;;;;;1.83;84.73;97492.53;116119;1184;60395;-65
2021/10/21 04:36:55;;;;;;;9.20;6.10;;;;;;;1.83;85.10;97486.88;116354;1182;60283;-65
2021/10/21 04:39:24;;;;;;;12.00;8.00;;;;;;;1.80;85.97;97479.91;116318;1182;72229;-64
2021/10/21 04:41:54;;;;;;;12.40;9.20;;;;;;;1.78;86.35;97475.33;116162;1182;67663;-64
2021/10/21 04:44:24;;;;;;;13.90;8.10;;;;;;;1.76;86.20;97470.27;116215;1182;69479;-63
2021/10/21 04:46:53;;;;;;;12.40;7.70;;;;;;;1.76;85.92;97463.91;116140;1183;60351;-64
2021/10/21 04:49:23;;;;;;;11.60;8.00;;;;;;;1.76;85.46;97465.27;116093;1183;60352;-64
2021/10/21 04:51:52;;;;;;;8.90;6.30;;;;;;;1.78;85.34;97465.89;116100;1184;71594;-64
2021/10/21 04:54:21;;;;;;;11.80;8.50;;;;;;;1.79;85.50;97465.33;116121;1184;68463;-65
2021/10/21 04:56:51;;;;;;;23.10;13.20;;;;;;;1.79;86.35;97463.45;116172;1184;68359;-65
2021/10/21 04:59:20;;;;;;;20.10;13.20;;;;;;;1.80;88.12;97463.75;116066;1183;60358;-63
2021/10/21 05:01:49;;;;;;;12.10;7.70;;;;;;;1.82;88.68;97459.73;115996;1185;60363;-65
2021/10/21 05:04:19;;;;;;;10.40;7.30;;;;;;;1.89;86.52;97458.59;116295;1182;71476;-66
2021/10/21 05:06:49;;;;;;;11.40;8.30;;;;;;;2.01;85.65;97459.88;116123;1184;68424;-66
2021/10/21 05:09:18;;;;;;;9.90;6.30;;;;;;;2.06;85.88;97457.45;116201;1185;69793;-65
2021/10/21 05:11:47;;;;;;;8.20;5.80;;;;;;;2.11;85.39;97458.48;116095;1184;60337;-66
2021/10/21 05:14:18;;;;;;;8.80;5.90;;;;;;;2.16;85.31;97457.43;116165;1182;60318;-66
2021/10/21 05:16:47;;;;;;;16.80;10.80;;;;;;;2.22;85.07;97458.06;116062;1184;72815;-67
2021/10/21 05:19:17;;;;;;;42.00;25.50;;;;;;;2.28;84.14;97458.85;116112;1183;68444;-66
2021/10/21 05:21:46;;;;;;;26.70;17.70;;;;;;;2.34;86.12;97458.80;116212;1182;68378;-66
2021/10/21 05:24:15;;;;;;;14.80;9.60;;;;;;;2.40;85.57;97456.16;116023;1184;60363;-64
2021/10/21 05:26:45;;;;;;;29.70;18.70;;;;;;;2.47;85.62;97447.59;116148;1183;60335;-65
2021/10/21 05:29:14;;;;;;;25.90;17.90;;;;;;;2.55;85.32;97445.20;116104;1183;72849;-65
2021/10/21 05:31:43;;;;;;;23.00;15.30;;;;;;;2.65;84.66;97448.27;116127;1183;69097;-64
2021/10/21 05:34:12;;;;;;;29.70;20.40;;;;;;;2.73;84.92;97445.02;116097;1184;68609;-64
2021/10/21 05:36:41;;;;;;;26.80;18.20;;;;;;;2.80;84.35;97445.23;116192;1182;60735;-65
2021/10/21 05:39:11;;;;;;;21.80;14.70;;;;;;;2.88;83.82;97444.91;116056;1184;60372;-66
2021/10/21 05:41:41;;;;;;;29.50;23.90;;;;;;;2.97;83.23;97440.05;116111;1184;72742;-63
2021/10/21 05:44:10;;;;;;;22.20;16.30;;;;;;;3.08;83.50;97443.05;116101;1182;68237;-63
2021/10/21 05:46:40;;;;;;;41.40;30.90;;;;;;;3.17;83.97;97441.95;116053;1184;68456;-65
2021/10/21 05:49:09;;;;;;;44.50;32.90;;;;;;;3.19;82.55;97443.60;116058;1184;60353;-64
2021/10/21 05:51:38;;;;;;;35.00;21.40;;;;;;;3.21;81.90;97447.48;116087;1184;60356;-64
2021/10/21 05:54:08;;;;;;;27.10;21.20;;;;;;;3.29;81.93;97446.63;115986;1184;71412;-65
2021/10/21 05:56:37;;;;;;;22.70;17.30;;;;;;;3.40;82.42;97449.60;115987;1184;67578;-63
2021/10/21 05:59:06;;;;;;;21.90;13.90;;;;;;;3.55;82.22;97447.88;115997;1182;69345;-67
2021/10/21 06:01:35;;;;;;;32.60;25.40;;;;;;;3.74;82.34;97451.71;116062;1185;60306;-64
2021/10/21 06:04:04;;;;;;;24.10;20.00;;;;;;;3.92;82.51;97454.33;116137;1184;60315;-65
2021/10/21 06:06:37;;;;;;;39.60;29.00;;;;;;;4.13;82.01;97455.98;116159;1184;71368;-65
2021/10/21 06:09:06;;;;;;;44.10;31.70;;;;;;;4.38;81.69;97452.40;116125;1183;67659;-67
2021/10/21 06:11:37;;;;;;;54.50;38.60;;;;;;;4.81;81.23;97451.02;116062;1183;68386;-64
2021/10/21 06:14:07;;;;;;;48.10;36.20;;;;;;;5.33;78.67;97451.37;116164;1183;60353;-65
2021/10/21 06:16:36;;;;;;;34.20;22.20;;;;;;;6.04;78.83;97450.42;116020;1184;60337;-63
2021/10/21 06:19:05;;;;;;;43.10;34.10;;;;;;;6.87;77.49;97447.37;116124;1185;72917;-63
2021/10/21 06:21:35;;;;;;;36.50;27.70;;;;;;;7.68;75.57;97445.20;116184;1182;68613;-65
2021/10/21 06:24:04;;;;;;;30.40;23.40;;;;;;;8.55;74.30;97447.05;116089;1183;69257;-64
2021/10/21 06:26:34;;;;;;;44.00;31.80;;;;;;;9.44;74.08;97450.09;116093;1183;60407;-66
2021/10/21 06:29:03;;;;;;;22.90;19.50;;;;;;;10.16;70.50;97446.52;116178;1182;60327;-64
2021/10/21 06:31:32;;;;;;;25.20;20.50;;;;;;;10.77;69.63;97441.80;116159;1183;72803;-66
2021/10/21 06:34:02;;;;;;;29.20;21.60;;;;;;;11.28;70.67;97437.19;116128;1184;67828;-65
2021/10/21 06:36:31;;;;;;;46.60;36.20;;;;;;;11.71;66.60;97433.88;116097;1185;69377;-67
2021/10/21 06:39:00;;;;;;;45.10;32.40;;;;;;;11.95;59.31;97432.95;115989;1184;60366;-65
2021/10/21 06:41:29;;;;;;;36.80;28.50;;;;;;;12.28;62.76;97430.66;116077;1183;60366;-66
2021/10/21 06:43:59;;;;;;;51.00;37.40;;;;;;;12.50;54.80;97424.21;116055;1185;72215;-66
2021/10/21 06:46:28;;;;;;;46.00;37.90;;;;;;;12.73;54.62;97423.75;116266;1182;68660;-65
2021/10/21 06:48:58;;;;;;;55.60;40.50;;;;;;;13.06;54.46;97421.02;116090;1184;69903;-66
2021/10/21 06:51:27;;;;;;;46.20;38.20;;;;;;;13.38;51.02;97425.80;116086;1182;60418;-64
2021/10/21 06:53:57;;;;;;;36.40;29.00;;;;;;;13.87;54.07;97422.10;116095;1182;60380;-65
2021/10/21 06:56:26;;;;;;;37.90;29.30;;;;;;;14.47;53.46;97413.23;116084;1183;72803;-66
2021/10/21 06:58:55;;;;;;;42.80;33.60;;;;;;;15.01;53.64;97410.10;116096;1183;69256;-64
2021/10/21 07:01:24;;;;;;;28.70;22.50;;;;;;;15.51;55.19;97406.63;116030;1184;69657;-64
2021/10/21 07:03:54;;;;;;;29.50;24.50;;;;;;;16.06;53.61;97410.11;116026;1184;60368;-68
2021/10/21 07:06:23;;;;;;;42.50;35.10;;;;;;;16.51;47.89;97409.11;116100;1184;60353;-65
2021/10/21 07:08:53;;;;;;;40.60;33.50;;;;;;;16.69;45.44;97411.34;115987;1184;71688;-62
2021/10/21 07:11:22;;;;;;;30.70;27.30;;;;;;;16.86;45.93;97409.88;116154;1184;68178;-64
2021/10/21 07:13:51;;;;;;;29.60;23.50;;;;;;;17.45;48.96;97414.02;116118;1183;68846;-64
2021/10/21 07:16:21;;;;;;;34.60;30.60;;;;;;;18.04;42.93;97412.51;116161;1184;60374;-64
2021/10/21 07:18:50;;;;;;;;;;;;;;;18.11;42.79;97409.63;116179;1183;60348;-65
2021/10/21 07:21:19;;;;;;;29.10;24.20;;;;;;;18.62;41.27;97409.02;116128;1183;72179;-65
2021/10/21 07:23:49;;;;;;;27.70;23.80;;;;;;;18.19;41.14;97410.72;116171;1182;68416;-67
2021/10/21 07:26:18;;;;;;;;;;;;;;;17.72;41.93;97412.19;116140;1182;69861;-68
2021/10/21 07:28:47;;;;;;;25.00;20.60;;;;;;;18.19;43.63;97411.61;116108;1183;60408;-65
2021/10/21 07:31:17;;;;;;;20.90;17.20;;;;;;;17.83;41.68;97412.86;116130;1182;60310;-64
2021/10/21 07:33:47;;;;;;;15.90;13.90;;;;;;;17.86;42.78;97406.06;116124;1182;72340;-65
2021/10/21 07:36:17;;;;;;;13.40;11.70;;;;;;;18.17;41.55;97405.45;116149;1183;68862;-66
2021/10/21 07:38:48;;;;;;;13.80;12.40;;;;;;;18.64;40.50;97403.39;116142;1184;69282;-66
2021/10/21 07:41:19;;;;;;;13.00;10.70;;;;;;;18.83;39.81;97401.36;116043;1184;60356;-65
2021/10/21 07:43:48;;;;;;;10.10;8.90;;;;;;;18.99;38.62;97400.20;116139;1184;60420;-65
2021/10/21 07:46:17;;;;;;;7.70;6.60;;;;;;;18.86;38.17;97396.63;116114;1183;71458;-68
2021/10/21 07:48:47;;;;;;;8.50;6.50;;;;;;;18.92;38.66;97391.77;116205;1182;68222;-66
2021/10/21 07:51:16;;;;;;;8.70;7.50;;;;;;;19.04;37.40;97383.38;116078;1184;69273;-64
2021/10/21 07:53:46;;;;;;;9.90;8.30;;;;;;;19.29;38.02;97379.45;116056;1182;60293;-65
2021/10/21 07:56:15;;;;;;;9.80;8.50;;;;;;;19.05;37.58;97373.41;116044;1184;60357;-68
2021/10/21 07:58:44;;;;;;;;;;;;;;;17.79;39.62;97377.16;116194;1182;72217;-64
2021/10/21 08:01:13;;;;;;;10.00;7.90;;;;;;;18.05;39.62;97376.77;116322;1183;68432;-69
2021/10/21 08:03:42;;;;;;;8.60;7.20;;;;;;;18.50;39.85;97370.62;116152;1183;68588;-68
2021/10/21 08:06:12;;;;;;;8.80;7.20;;;;;;;19.19;36.77;97370.61;116082;1184;60307;-67
2021/10/21 08:08:41;;;;;;;9.50;8.20;;;;;;;19.47;36.60;97365.53;116145;1184;60351;-69
2021/10/21 08:11:10;;;;;;;7.30;6.10;;;;;;;19.17;36.70;97362.27;116137;1183;72572;-69
2021/10/21 08:13:39;;;;;;;7.40;6.40;;;;;;;19.46;36.57;97355.75;116169;1182;68564;-66
2021/10/21 08:16:09;;;;;;;7.50;5.50;;;;;;;20.28;35.35;97354.36;116174;1181;69132;-65
2021/10/21 08:18:38;;;;;;;7.50;6.70;;;;;;;20.59;33.52;97355.23;116135;1182;60814;-67
2021/10/21 08:21:07;;;;;;;7.80;6.80;;;;;;;20.66;33.01;97346.13;115922;1184;60348;-64
2021/10/21 08:23:37;;;;;;;8.00;6.20;;;;;;;20.75;32.62;97340.84;116239;1183;71287;-66
2021/10/21 08:26:06;;;;;;;6.70;5.70;;;;;;;19.83;33.26;97340.98;116039;1184;67710;-68
2021/10/21 08:28:35;;;;;;;7.30;5.60;;;;;;;19.85;33.25;97333.70;116134;1184;69681;-64
2021/10/21 08:31:05;;;;;;;5.50;4.60;;;;;;;20.56;32.69;97329.51;116265;1182;60383;-66
2021/10/21 08:33:34;;;;;;;6.60;5.60;;;;;;;21.47;31.93;97332.77;116476;1182;60360;-68
2021/10/21 08:36:03;;;;;;;7.50;5.60;;;;;;;22.19;30.20;97326.64;116143;1182;72514;-66
2021/10/21 08:38:32;;;;;;;;;;;;;;;22.22;29.79;97326.84;116126;1184;68342;-66
2021/10/21 08:41:01;;;;;;;6.70;5.80;;;;;;;21.81;29.32;97329.44;116133;1184;69349;-69
2021/10/21 08:43:32;;;;;;;7.80;6.50;;;;;;;21.59;30.23;97326.53;116187;1182;60312;-66
2021/10/21 08:46:02;;;;;;;7.80;6.30;;;;;;;21.51;30.11;97325.39;116041;1182;60339;-69
2021/10/21 08:48:34;;;;;;;6.70;5.30;;;;;;;21.58;29.82;97325.23;116135;1184;72817;-65
2021/10/21 08:51:05;;;;;;;8.00;6.00;;;;;;;22.31;29.46;97324.44;116295;1182;68519;-67
2021/10/21 08:53:34;;;;;;;9.50;5.80;;;;;;;23.03;28.63;97313.59;116299;1182;67277;-68
2021/10/21 08:56:05;;;;;;;8.90;7.00;;;;;;;23.57;27.53;97309.89;116290;1182;60789;-64
2021/10/21 08:58:35;;;;;;;8.80;6.80;;;;;;;24.17;28.07;97308.03;116338;1182;60347;-67
2021/10/21 09:01:10;;;;;;;8.60;6.90;;;;;;;24.87;26.67;97310.64;116037;1183;71233;-70
2021/10/21 09:03:57;;;;;;;7.30;5.70;;;;;;;24.24;26.48;97309.66;116184;1184;67679;-69
2021/10/21 09:09:05;;;;;;;8.10;6.20;;;;;;;23.21;27.48;97302.62;115971;1184;60416;-66
2021/10/21 09:11:34;;;;;;;8.30;7.10;;;;;;;23.17;27.82;97299.84;116213;1184;60369;-68
2021/10/21 09:14:12;;;;;;;5.70;4.90;;;;;;;23.00;27.99;97295.67;116202;1184;72245;-68
2021/10/21 09:16:41;;;;;;;7.60;6.60;;;;;;;23.35;27.94;97294.71;116096;1184;68552;-70
2021/10/21 09:19:11;;;;;;;7.30;6.30;;;;;;;23.13;28.19;97295.77;116090;1183;69771;-69
2021/10/21 09:22:00;;;;;;;7.80;6.30;;;;;;;24.15;27.55;97286.04;116130;1183;60399;-68
2021/10/21 09:24:35;;;;;;;7.10;6.40;;;;;;;23.78;27.06;97283.39;116096;1182;60306;-68
2021/10/21 09:27:35;;;;;;;7.00;5.80;;;;;;;22.24;28.90;97273.85;116028;1184;71961;-69
2021/10/21 09:30:06;;;;;;;7.40;6.50;;;;;;;23.41;27.96;97272.11;115676;1187;67746;-69
2021/10/21 09:32:36;;;;;;;5.00;4.10;;;;;;;23.79;27.20;97267.44;115712;1186;68650;-69
2021/10/21 09:35:08;;;;;;;8.00;6.50;;;;;;;25.08;25.65;97266.80;115710;1186;60386;-64
2021/10/21 09:37:42;;;;;;;6.50;5.20;;;;;;;25.65;24.41;97266.73;115775;1187;60360;-66
2021/10/21 09:40:20;;;;;;;6.50;5.80;;;;;;;26.68;24.58;97262.79;115806;1186;72134;-67
2021/10/21 09:42:58;;;;;;;6.00;5.20;;;;;;;26.81;23.25;97258.02;115715;1187;67514;-67
2021/10/21 09:45:33;;;;;;;6.90;5.20;;;;;;;26.30;23.43;97260.80;115767;1187;67725;-68
2021/10/21 09:48:06;;;;;;;6.60;5.40;;;;;;;26.37;23.56;97260.02;115802;1187;60489;-66
2021/10/21 09:50:41;;;;;;;6.30;5.60;;;;;;;25.77;24.35;97262.05;115679;1187;60529;-66
2021/10/21 09:53:31;;;;;;;7.80;6.40;;;;;;;25.27;25.08;97259.44;115806;1186;72779;-65
2021/10/21 09:56:02;;;;;;;8.90;7.30;;;;;;;24.23;26.25;97256.02;115818;1187;68637;-65
2021/10/21 09:58:34;;;;;;;8.00;6.10;;;;;;;24.59;26.22;97252.38;115785;1186;69228;-72
2021/10/21 10:01:11;;;;;;;6.30;5.60;;;;;;;25.61;25.29;97252.13;115812;1187;60373;-69
2021/10/21 10:03:43;;;;;;;9.20;6.90;;;;;;;25.80;24.30;97249.83;115839;1187;60464;-67
2021/10/21 10:06:17;;;;;;;6.50;5.30;;;;;;;26.18;24.48;97243.20;115886;1184;72250;-69
2021/10/21 10:08:46;;;;;;;5.90;5.30;;;;;;;27.60;23.66;97237.70;116183;1182;68330;-68
2021/10/21 10:11:19;;;;;;;7.90;6.40;;;;;;;28.61;22.72;97236.30;116082;1184;67835;-68
2021/10/21 10:13:53;;;;;;;6.40;5.50;;;;;;;28.76;21.59;97231.96;116233;1182;60354;-67
2021/10/21 10:16:24;;;;;;;7.90;7.10;;;;;;;29.55;21.10;97232.17;116370;1183;60366;-66
2021/10/21 10:18:53;;;;;;;7.50;6.70;;;;;;;28.42;21.32;97229.38;116331;1182;72955;-66
2021/10/21 10:21:29;;;;;;;9.70;7.30;;;;;;;28.41;21.23;97229.17;116268;1182;68534;-65
2021/10/21 10:24:08;;;;;;;9.40;7.70;;;;;;;26.90;22.88;97223.23;116168;1184;69249;-70
2021/10/21 10:26:41;;;;;;;8.60;7.80;;;;;;;26.50;23.60;97218.55;116137;1183;60364;-64
2021/10/21 10:29:19;;;;;;;10.50;8.10;;;;;;;26.81;23.37;97216.84;116318;1182;60332;-67
2021/10/21 10:31:55;;;;;;;8.20;7.30;;;;;;;26.82;23.63;97212.55;116245;1182;71444;-66
2021/10/21 10:34:36;;;;;;;11.50;9.00;;;;;;;26.59;23.68;97207.23;116313;1182;68526;-65
2021/10/21 10:37:21;;;;;;;9.60;8.00;;;;;;;26.39;24.07;97205.22;116016;1184;68439;-67
2021/10/21 10:40:01;;;;;;;10.50;7.70;;;;;;;26.04;24.43;97202.86;116030;1183;60354;-67
2021/10/21 10:42:30;;;;;;;9.70;7.60;;;;;;;25.36;25.16;97200.90;116195;1182;60382;-67
2021/10/21 10:45:03;;;;;;;12.80;11.30;;;;;;;25.22;25.75;97196.78;116284;1182;72281;-68
2021/10/21 10:47:38;;;;;;;12.90;10.80;;;;;;;24.48;26.57;97193.71;116108;1182;68563;-67
2021/10/21 10:50:13;;;;;;;8.10;7.10;;;;;;;24.89;26.23;97184.17;116198;1184;68661;-67
2021/10/21 10:52:52;;;;;;;14.20;12.80;;;;;;;25.86;25.60;97181.33;116146;1184;60447;-65
2021/10/21 10:55:23;;;;;;;9.90;8.30;;;;;;;26.16;25.24;97171.80;116283;1182;60346;-64
2021/10/21 10:57:56;;;;;;;8.00;7.10;;;;;;;27.18;24.93;97170.52;116164;1176;72729;-64
2021/10/21 11:00:54;;;;;;;13.50;11.60;;;;;;;27.92;23.44;97169.55;116091;1184;68439;-65
2021/10/21 11:03:32;;;;;;;11.80;10.20;;;;;;;28.25;22.24;97160.61;115881;1184;69905;-70
2021/10/21 11:06:08;;;;;;;9.10;8.00;;;;;;;27.42;22.52;97160.36;116094;1183;60319;-67
2021/10/21 11:09:02;;;;;;;12.60;10.20;;;;;;;26.46;23.91;97155.35;116254;1182;60388;-65
2021/10/21 11:11:39;;;;;;;11.60;10.20;;;;;;;26.20;24.48;97149.27;116162;1184;72240;-67
2021/10/21 11:14:11;;;;;;;13.20;11.30;;;;;;;26.77;24.15;97146.04;116121;1183;67959;-66
2021/10/21 11:16:46;;;;;;;11.80;9.90;;;;;;;27.08;24.49;97143.55;116015;1184;69865;-68
2021/10/21 11:19:46;;;;;;;11.80;10.60;;;;;;;27.62;24.49;97143.04;116131;1182;60303;-68
2021/10/21 11:22:18;;;;;;;11.60;10.20;;;;;;;28.10;23.52;97141.77;116166;1183;60372;-66
2021/10/21 11:24:48;;;;;;;10.80;8.80;;;;;;;28.56;22.79;97136.70;116151;1184;71366;-68
2021/10/21 11:27:20;;;;;;;10.00;9.00;;;;;;;28.97;23.01;97134.02;116184;1183;68459;-69
2021/10/21 11:29:51;;;;;;;11.00;9.60;;;;;;;29.44;22.16;97127.35;115950;1184;69656;-64
2021/10/21 11:32:22;;;;;;;12.30;10.20;;;;;;;30.05;22.14;97124.38;116051;1184;60363;-67
2021/10/21 11:34:51;;;;;;;14.20;12.70;;;;;;;30.58;21.02;97123.03;116298;1183;60305;-66
2021/10/21 11:37:46;;;;;;;10.60;9.50;;;;;;;31.27;20.92;97120.07;116163;1183;72702;-68
2021/10/21 11:40:26;;;;;;;8.70;7.80;;;;;;;31.98;20.15;97107.84;116138;1184;67625;-70
2021/10/21 11:42:58;;;;;;;9.30;8.20;;;;;;;32.53;18.78;97109.48;116065;1184;69667;-65